Time;durP1;ratioP1;P1;durP2;ratioP2;P2;SDS_P1;SDS_P2;PMS_P1;PMS_P2;Temp;Humidity;BMP_temperature;BMP_pressure;BME280_temperature;BME280_humidity;BME280_pressure;Samples;Min_cycle;Max_cycle;Signal;HPM_P1;HPM_P2
2022/03/25 00:00:28;;;;;;;15.18;10.88;;;;;;;;;;5034560;28;20219;-68
2022/03/25 00:02:58;;;;;;;13.73;10.52;;;;;;;;;;5034181;28;20532;-65
2022/03/25 00:05:26;;;;;;;16.17;12.15;;;;;;;;;;5034141;28;20415;-66
2022/03/25 00:07:54;;;;;;;19.30;11.15;;;;;;;;;;5048892;28;20059;-66
2022/03/25 00:10:23;;;;;;;17.58;10.50;;;;;;;;;;5054160;28;20106;-66
2022/03/25 00:12:51;;;;;;;14.93;10.90;;;;;;;;;;5053687;28;20140;-65
2022/03/25 00:15:22;;;;;;;13.88;11.05;;;;;;;;;;5053690;28;20053;-65
2022/03/25 00:17:50;;;;;;;16.17;11.93;;;;;;;;;;5053017;28;20045;-65
2022/03/25 00:20:18;;;;;;;19.45;11.13;;;;;;;;;;5052323;28;20051;-65
2022/03/25 00:22:46;;;;;;;16.30;10.80;;;;;;;;;;5042853;28;20065;-65
2022/03/25 00:25:16;;;;;;;12.20;10.23;;;;;;;;;;5033510;28;20061;-65
2022/03/25 00:27:45;;;;;;;17.00;11.48;;;;;;;;;;5033637;28;20504;-65
2022/03/25 00:30:12;;;;;;;15.68;11.35;;;;;;;;;;5032279;28;20128;-65
2022/03/25 00:32:41;;;;;;;16.42;11.23;;;;;;;;;;5040441;28;20118;-65
2022/03/25 00:35:10;;;;;;;14.68;11.38;;;;;;;;;;5053463;28;20051;-65
2022/03/25 00:37:39;;;;;;;16.98;11.15;;;;;;;;;;5052126;28;20052;-65
2022/03/25 00:40:08;;;;;;;17.67;11.07;;;;;;;;;;5032606;28;20049;-65
2022/03/25 00:42:37;;;;;;;14.40;10.38;;;;;;;;;;5047342;28;20455;-64
2022/03/25 00:45:07;;;;;;;12.27;9.48;;;;;;;;;;5036155;28;20049;-66
2022/03/25 00:47:36;;;;;;;14.65;10.52;;;;;;;;;;5052770;28;20041;-66
2022/03/25 00:50:06;;;;;;;13.43;9.95;;;;;;;;;;5035400;28;20057;-66
2022/03/25 00:52:34;;;;;;;18.30;12.60;;;;;;;;;;5033610;28;20465;-65
2022/03/25 00:55:03;;;;;;;14.23;12.30;;;;;;;;;;5032350;28;20488;-64
2022/03/25 00:57:31;;;;;;;16.45;12.50;;;;;;;;;;5032904;28;20049;-64
2022/03/25 01:00:00;;;;;;;16.33;11.88;;;;;;;;;;5033787;28;20136;-66
2022/03/25 01:02:30;;;;;;;24.45;12.32;;;;;;;;;;5033444;28;20104;-65
2022/03/25 01:05:00;;;;;;;16.77;12.85;;;;;;;;;;5032150;28;20086;-66
2022/03/25 01:07:28;;;;;;;15.65;13.93;;;;;;;;;;5032242;28;20095;-66
2022/03/25 01:09:57;;;;;;;15.93;14.13;;;;;;;;;;5033369;28;20056;-66
2022/03/25 01:12:25;;;;;;;15.10;12.82;;;;;;;;;;5032275;28;20076;-66
2022/03/25 01:14:54;;;;;;;17.58;12.55;;;;;;;;;;5033020;28;20045;-65
2022/03/25 01:17:23;;;;;;;15.75;13.40;;;;;;;;;;5052629;28;20472;-65
2022/03/25 01:19:52;;;;;;;17.10;14.75;;;;;;;;;;5052589;28;20136;-65
2022/03/25 01:22:20;;;;;;;18.27;13.82;;;;;;;;;;5052591;28;20073;-65
2022/03/25 01:24:49;;;;;;;17.80;13.80;;;;;;;;;;5036889;28;20115;-68
2022/03/25 01:27:22;;;;;;;21.13;14.00;;;;;;;;;;5033374;28;20053;-68
2022/03/25 01:29:51;;;;;;;20.42;14.23;;;;;;;;;;5033284;28;20128;-68
2022/03/25 01:32:18;;;;;;;16.88;13.23;;;;;;;;;;5050240;28;20099;-68
2022/03/25 01:34:45;;;;;;;20.25;13.88;;;;;;;;;;5053168;28;20095;-68
2022/03/25 01:37:14;;;;;;;18.50;13.15;;;;;;;;;;5052728;28;20495;-67
2022/03/25 01:39:44;;;;;;;17.98;14.30;;;;;;;;;;5052341;28;20053;-65
2022/03/25 01:42:12;;;;;;;19.08;13.40;;;;;;;;;;5052217;28;20053;-64
2022/03/25 01:44:41;;;;;;;16.90;13.63;;;;;;;;;;5035230;28;20090;-64
2022/03/25 01:47:13;;;;;;;18.52;14.43;;;;;;;;;;5052705;28;20129;-64
2022/03/25 01:49:42;;;;;;;19.08;14.80;;;;;;;;;;5056579;28;20045;-64
2022/03/25 01:52:11;;;;;;;21.52;15.98;;;;;;;;;;5056302;28;20099;-64
2022/03/25 01:54:40;;;;;;;16.67;12.65;;;;;;;;;;5054754;28;20135;-64
2022/03/25 01:57:11;;;;;;;16.92;13.20;;;;;;;;;;5054952;28;20059;-64
2022/03/25 01:59:39;;;;;;;20.13;14.75;;;;;;;;;;5043728;28;20496;-64
2022/03/25 02:02:09;;;;;;;17.52;13.05;;;;;;;;;;5037138;28;20054;-64
2022/03/25 02:04:37;;;;;;;19.77;14.85;;;;;;;;;;5036214;28;20065;-64
2022/03/25 02:07:08;;;;;;;20.88;13.90;;;;;;;;;;5034959;28;20046;-64
2022/03/25 02:09:36;;;;;;;18.25;13.80;;;;;;;;;;5039406;28;20041;-64
2022/03/25 02:12:10;;;;;;;20.88;13.73;;;;;;;;;;5035776;28;20099;-64
2022/03/25 02:14:38;;;;;;;21.60;15.10;;;;;;;;;;5035957;28;20080;-64
2022/03/25 02:17:06;;;;;;;16.23;13.88;;;;;;;;;;5037086;28;20502;-64
2022/03/25 02:19:35;;;;;;;17.20;13.30;;;;;;;;;;5034920;28;20493;-64
2022/03/25 02:22:02;;;;;;;17.63;13.70;;;;;;;;;;5035276;28;20045;-64
2022/03/25 02:24:35;;;;;;;18.42;14.85;;;;;;;;;;5035429;28;20052;-67
2022/03/25 02:27:03;;;;;;;18.90;14.07;;;;;;;;;;5035079;28;20489;-66
2022/03/25 02:29:33;;;;;;;20.25;13.32;;;;;;;;;;5033273;28;20045;-64
2022/03/25 02:32:07;;;;;;;16.93;12.80;;;;;;;;;;5036157;28;20053;-65
2022/03/25 02:34:39;;;;;;;20.63;14.40;;;;;;;;;;5035033;28;20299;-64
2022/03/25 02:37:07;;;;;;;17.95;13.38;;;;;;;;;;5034486;28;20157;-65
2022/03/25 02:39:36;;;;;;;20.98;15.00;;;;;;;;;;5034666;28;20072;-65
2022/03/25 02:42:04;;;;;;;21.58;13.27;;;;;;;;;;5034402;28;20052;-65
2022/03/25 02:44:33;;;;;;;26.80;16.60;;;;;;;;;;5050848;28;20095;-65
2022/03/25 02:47:00;;;;;;;28.75;16.95;;;;;;;;;;5034068;28;20054;-65
2022/03/25 02:49:28;;;;;;;17.45;13.60;;;;;;;;;;5034957;28;20405;-65
2022/03/25 02:51:57;;;;;;;17.38;11.85;;;;;;;;;;5035834;28;20137;-65
2022/03/25 02:54:26;;;;;;;15.30;11.73;;;;;;;;;;5035601;28;20522;-65
2022/03/25 02:56:56;;;;;;;12.48;9.60;;;;;;;;;;5035513;28;20049;-65
2022/03/25 02:59:25;;;;;;;15.50;10.55;;;;;;;;;;5034796;28;20060;-65
2022/03/25 03:01:54;;;;;;;14.10;10.95;;;;;;;;;;5035490;28;20136;-65
2022/03/25 03:04:24;;;;;;;17.63;11.77;;;;;;;;;;5035267;28;20050;-65
2022/03/25 03:06:52;;;;;;;15.15;10.05;;;;;;;;;;5035446;28;20057;-65
2022/03/25 03:09:21;;;;;;;12.30;9.93;;;;;;;;;;5034412;28;20149;-65
2022/03/25 03:11:49;;;;;;;12.85;10.52;;;;;;;;;;5035512;28;20469;-65
2022/03/25 03:14:20;;;;;;;14.55;8.52;;;;;;;;;;5034879;28;20390;-66
2022/03/25 03:16:48;;;;;;;16.98;11.05;;;;;;;;;;5034261;28;20060;-66
2022/03/25 03:19:17;;;;;;;17.10;9.10;;;;;;;;;;5048022;28;20056;-66
2022/03/25 03:21:45;;;;;;;10.70;7.50;;;;;;;;;;5054634;28;20512;-68
2022/03/25 03:24:14;;;;;;;17.83;7.78;;;;;;;;;;5054809;28;20045;-65
2022/03/25 03:26:46;;;;;;;10.80;8.57;;;;;;;;;;5054438;28;20053;-66
2022/03/25 03:29:14;;;;;;;13.80;8.18;;;;;;;;;;5054625;28;20056;-67
2022/03/25 03:31:43;;;;;;;12.05;7.57;;;;;;;;;;5054914;28;20412;-68
2022/03/25 03:34:12;;;;;;;10.10;8.15;;;;;;;;;;5034895;28;20062;-66
2022/03/25 03:36:39;;;;;;;11.65;7.82;;;;;;;;;;5034684;28;20069;-66
2022/03/25 03:39:08;;;;;;;9.15;7.63;;;;;;;;;;5034873;28;20058;-65
2022/03/25 03:41:36;;;;;;;7.68;6.88;;;;;;;;;;5034578;28;20481;-65
2022/03/25 03:44:06;;;;;;;9.93;7.70;;;;;;;;;;5034792;28;20050;-65
2022/03/25 03:46:36;;;;;;;11.05;7.35;;;;;;;;;;5034704;28;20444;-65
2022/03/25 03:49:04;;;;;;;9.18;7.43;;;;;;;;;;5050533;28;20044;-65
2022/03/25 03:51:33;;;;;;;9.52;7.78;;;;;;;;;;5053914;28;20037;-65
2022/03/25 03:54:03;;;;;;;9.27;7.20;;;;;;;;;;5054397;28;20052;-64
2022/03/25 03:56:33;;;;;;;8.32;7.00;;;;;;;;;;5054119;28;20051;-66
2022/03/25 03:59:02;;;;;;;8.05;6.47;;;;;;;;;;5053995;28;20406;-66
2022/03/25 04:01:30;;;;;;;8.70;6.72;;;;;;;;;;5052011;28;20044;-64
2022/03/25 04:03:58;;;;;;;8.15;6.07;;;;;;;;;;5050707;28;20504;-64
2022/03/25 04:06:28;;;;;;;10.88;7.00;;;;;;;;;;5034559;28;20087;-64
2022/03/25 04:08:59;;;;;;;9.38;6.10;;;;;;;;;;5034059;28;20057;-64
2022/03/25 04:11:28;;;;;;;6.82;5.97;;;;;;;;;;5046502;28;20049;-65
2022/03/25 04:13:57;;;;;;;9.85;6.53;;;;;;;;;;5052888;28;20587;-66
2022/03/25 04:16:26;;;;;;;6.90;6.20;;;;;;;;;;5053269;28;20069;-66
2022/03/25 04:18:56;;;;;;;7.90;6.07;;;;;;;;;;5052780;28;20052;-66
2022/03/25 04:21:26;;;;;;;10.25;6.13;;;;;;;;;;5053581;28;20079;-65
2022/03/25 04:23:55;;;;;;;9.93;6.75;;;;;;;;;;5054037;28;20111;-66
2022/03/25 04:26:24;;;;;;;12.25;6.40;;;;;;;;;;5053236;28;20053;-66
2022/03/25 04:28:56;;;;;;;8.57;6.88;;;;;;;;;;5053823;28;20057;-66
2022/03/25 04:31:25;;;;;;;7.88;7.00;;;;;;;;;;5053659;28;20066;-66
2022/03/25 04:33:53;;;;;;;8.25;6.13;;;;;;;;;;5053294;28;20115;-66
2022/03/25 04:36:23;;;;;;;8.95;5.45;;;;;;;;;;5053327;28;20056;-66
2022/03/25 04:38:51;;;;;;;8.00;6.50;;;;;;;;;;5043468;28;20132;-69
2022/03/25 04:41:23;;;;;;;7.32;6.47;;;;;;;;;;5037746;28;20431;-67
2022/03/25 04:43:52;;;;;;;8.23;6.70;;;;;;;;;;5035825;28;20129;-65
2022/03/25 04:46:20;;;;;;;7.68;6.13;;;;;;;;;;5033745;28;20061;-67
2022/03/25 04:48:49;;;;;;;9.02;7.43;;;;;;;;;;5033776;28;20075;-67
2022/03/25 04:51:18;;;;;;;8.25;7.25;;;;;;;;;;5053209;28;20496;-66
2022/03/25 04:53:49;;;;;;;9.65;6.75;;;;;;;;;;5033756;28;20053;-67
2022/03/25 04:56:18;;;;;;;8.73;6.85;;;;;;;;;;5033328;28;20046;-66
2022/03/25 04:58:47;;;;;;;10.07;6.13;;;;;;;;;;5033074;28;20042;-67
2022/03/25 05:01:17;;;;;;;10.60;6.63;;;;;;;;;;5033215;28;20103;-66
2022/03/25 05:03:47;;;;;;;8.00;6.40;;;;;;;;;;5033326;28;20080;-68
2022/03/25 05:06:15;;;;;;;6.93;5.95;;;;;;;;;;5033444;28;20566;-66
2022/03/25 05:08:43;;;;;;;7.38;5.75;;;;;;;;;;5033471;28;20099;-66
2022/03/25 05:11:12;;;;;;;7.90;6.25;;;;;;;;;;5033397;28;20489;-66
2022/03/25 05:13:40;;;;;;;8.18;6.78;;;;;;;;;;5033066;28;20479;-65
2022/03/25 05:16:09;;;;;;;9.07;6.53;;;;;;;;;;5032818;28;20398;-65
2022/03/25 05:18:39;;;;;;;11.57;6.60;;;;;;;;;;5038702;28;20129;-66
2022/03/25 05:21:06;;;;;;;9.95;6.03;;;;;;;;;;5033408;28;20069;-66
2022/03/25 05:23:35;;;;;;;12.77;7.82;;;;;;;;;;5040830;28;20049;-68
2022/03/25 05:26:05;;;;;;;7.70;6.70;;;;;;;;;;5039826;28;20045;-68
2022/03/25 05:28:39;;;;;;;33.00;6.80;;;;;;;;;;5048399;28;20044;-67
2022/03/25 05:31:08;;;;;;;13.73;7.25;;;;;;;;;;5045675;28;20049;-67
2022/03/25 05:33:37;;;;;;;21.25;6.55;;;;;;;;;;5045644;28;20424;-67
2022/03/25 05:36:06;;;;;;;9.48;6.25;;;;;;;;;;5039701;28;20136;-67
2022/03/25 05:38:35;;;;;;;9.57;6.25;;;;;;;;;;5043892;28;20076;-68
2022/03/25 05:41:03;;;;;;;8.77;6.70;;;;;;;;;;5037646;28;20045;-68
2022/03/25 05:43:32;;;;;;;6.63;5.65;;;;;;;;;;5039470;28;20471;-69
2022/03/25 05:46:03;;;;;;;8.07;6.60;;;;;;;;;;5038923;28;20512;-68
2022/03/25 05:48:31;;;;;;;12.25;6.63;;;;;;;;;;5037567;28;20657;-66
2022/03/25 05:51:02;;;;;;;11.30;6.88;;;;;;;;;;5041298;28;20033;-67
2022/03/25 05:53:31;;;;;;;11.55;5.63;;;;;;;;;;5046450;28;20045;-70
2022/03/25 05:56:00;;;;;;;9.13;5.30;;;;;;;;;;5041474;28;20049;-66
2022/03/25 05:58:28;;;;;;;7.15;5.75;;;;;;;;;;5048368;28;20569;-66
2022/03/25 06:00:57;;;;;;;9.18;6.22;;;;;;;;;;5045137;28;20041;-65
2022/03/25 06:03:26;;;;;;;11.73;6.82;;;;;;;;;;5047781;28;20542;-66
2022/03/25 06:05:55;;;;;;;8.40;6.22;;;;;;;;;;5045538;28;20052;-67
2022/03/25 06:08:24;;;;;;;9.57;6.65;;;;;;;;;;5041942;28;20045;-65
2022/03/25 06:10:55;;;;;;;8.23;6.45;;;;;;;;;;5038802;28;20378;-64
2022/03/25 06:13:24;;;;;;;18.40;6.35;;;;;;;;;;5036536;28;20057;-67
2022/03/25 06:15:53;;;;;;;8.00;6.30;;;;;;;;;;5038468;28;20068;-66
2022/03/25 06:18:20;;;;;;;11.00;6.85;;;;;;;;;;5039238;28;20041;-64
2022/03/25 06:20:49;;;;;;;9.60;6.97;;;;;;;;;;5049776;28;20044;-65
2022/03/25 06:23:17;;;;;;;9.77;7.78;;;;;;;;;;5054070;28;20052;-66
2022/03/25 06:25:46;;;;;;;12.90;7.63;;;;;;;;;;5055720;28;20080;-67
2022/03/25 06:28:15;;;;;;;12.73;7.03;;;;;;;;;;5055264;28;20099;-66
2022/03/25 06:30:44;;;;;;;11.80;7.43;;;;;;;;;;5055304;28;20044;-66
2022/03/25 06:33:13;;;;;;;17.10;7.47;;;;;;;;;;5053940;28;20053;-66
2022/03/25 06:35:41;;;;;;;16.05;8.13;;;;;;;;;;5053933;28;20045;-66
2022/03/25 06:38:10;;;;;;;17.38;8.38;;;;;;;;;;5050440;28;20053;-66
2022/03/25 06:40:38;;;;;;;15.18;7.10;;;;;;;;;;5043246;28;20049;-65
2022/03/25 06:43:07;;;;;;;15.02;8.18;;;;;;;;;;5036933;28;20053;-66
2022/03/25 06:45:37;;;;;;;13.55;7.47;;;;;;;;;;5037539;28;20405;-64
2022/03/25 06:48:07;;;;;;;12.70;8.02;;;;;;;;;;5038644;28;20084;-65
2022/03/25 06:50:37;;;;;;;14.50;8.18;;;;;;;;;;5037930;28;20045;-64
2022/03/25 06:53:07;;;;;;;11.68;7.60;;;;;;;;;;5036842;28;20092;-64
2022/03/25 06:55:37;;;;;;;12.05;7.28;;;;;;;;;;5037917;28;20065;-64
2022/03/25 06:58:06;;;;;;;14.63;7.90;;;;;;;;;;5039226;28;20055;-64
2022/03/25 07:00:36;;;;;;;13.18;7.20;;;;;;;;;;5037335;28;20046;-64
2022/03/25 07:03:05;;;;;;;16.58;7.88;;;;;;;;;;5041066;28;20037;-64
2022/03/25 07:05:36;;;;;;;18.00;10.27;;;;;;;;;;5034865;28;20056;-64
2022/03/25 07:08:05;;;;;;;27.45;10.52;;;;;;;;;;5035193;28;20062;-67
2022/03/25 07:10:34;;;;;;;20.02;9.25;;;;;;;;;;5037330;28;20114;-64
2022/03/25 07:13:04;;;;;;;22.10;7.78;;;;;;;;;;5034997;28;20051;-65
2022/03/25 07:15:32;;;;;;;18.65;7.38;;;;;;;;;;5034169;28;20107;-65
2022/03/25 07:18:01;;;;;;;17.88;8.32;;;;;;;;;;5047706;28;20140;-65
2022/03/25 07:20:30;;;;;;;17.73;6.60;;;;;;;;;;5041616;28;20401;-65
2022/03/25 07:22:58;;;;;;;15.38;8.77;;;;;;;;;;5046731;28;20049;-65
2022/03/25 07:25:29;;;;;;;28.05;10.23;;;;;;;;;;5034001;28;20084;-64
2022/03/25 07:27:57;;;;;;;10.52;7.40;;;;;;;;;;5035086;28;20100;-63
2022/03/25 07:30:25;;;;;;;18.73;7.53;;;;;;;;;;5043210;28;20056;-62
2022/03/25 07:32:55;;;;;;;28.33;10.32;;;;;;;;;;5053927;28;20060;-64
2022/03/25 07:35:25;;;;;;;16.40;7.00;;;;;;;;;;5052248;28;20411;-63
2022/03/25 07:37:53;;;;;;;11.77;9.20;;;;;;;;;;5053894;28;20057;-62
2022/03/25 07:40:22;;;;;;;30.23;10.00;;;;;;;;;;5039996;28;20049;-62
2022/03/25 07:42:50;;;;;;;21.00;8.07;;;;;;;;;;5040606;28;20487;-62
2022/03/25 07:45:19;;;;;;;17.15;8.20;;;;;;;;;;5034872;28;20053;-64
2022/03/25 07:47:49;;;;;;;22.15;9.55;;;;;;;;;;5034770;28;20053;-62
2022/03/25 07:50:21;;;;;;;12.85;8.20;;;;;;;;;;5038580;28;20041;-61
2022/03/25 07:52:51;;;;;;;21.90;8.60;;;;;;;;;;5034311;28;20054;-62
2022/03/25 07:55:20;;;;;;;16.92;10.40;;;;;;;;;;5034040;28;20072;-62
2022/03/25 07:57:49;;;;;;;14.07;9.05;;;;;;;;;;5034171;28;20053;-62
2022/03/25 08:00:19;;;;;;;16.15;10.18;;;;;;;;;;5033598;28;20049;-62
2022/03/25 08:02:50;;;;;;;12.45;10.60;;;;;;;;;;5034165;28;20060;-62
2022/03/25 08:05:19;;;;;;;16.60;11.10;;;;;;;;;;5033494;28;20049;-62
2022/03/25 08:07:53;;;;;;;16.85;11.75;;;;;;;;;;5036205;28;20041;-62
2022/03/25 08:10:26;;;;;;;;;;;;;;;;;;5033414;28;20056;-62
2022/03/25 08:12:56;;;;;;;16.98;11.93;;;;;;;;;;5050697;28;19928;-62
2022/03/25 08:15:28;;;;;;;15.48;12.32;;;;;;;;;;5050133;28;20053;-63
2022/03/25 08:17:58;;;;;;;14.85;13.25;;;;;;;;;;5041531;28;20045;-65
2022/03/25 08:20:33;;;;;;;16.13;13.77;;;;;;;;;;5036039;28;20071;-65
2022/03/25 08:23:01;;;;;;;17.45;12.77;;;;;;;;;;5033943;28;20095;-65
2022/03/25 08:28:18;;;;;;;17.60;13.48;;;;;;;;;;5031547;28;20064;-65
2022/03/25 08:30:46;;;;;;;17.45;12.55;;;;;;;;;;5031854;28;20130;-66
2022/03/25 08:33:15;;;;;;;16.73;14.77;;;;;;;;;;5035161;28;20049;-65
2022/03/25 08:35:44;;;;;;;15.82;14.23;;;;;;;;;;5032425;28;20067;-65
2022/03/25 08:38:12;;;;;;;16.27;14.57;;;;;;;;;;5031097;28;20061;-65
2022/03/25 08:40:41;;;;;;;16.38;14.57;;;;;;;;;;5033887;28;20431;-65
2022/03/25 08:43:29;;;;;;;16.23;14.48;;;;;;;;;;5031656;28;20049;-65
2022/03/25 08:45:59;;;;;;;16.25;14.40;;;;;;;;;;5032809;28;20048;-66
2022/03/25 08:48:28;;;;;;;18.33;14.35;;;;;;;;;;5031659;28;20492;-65
2022/03/25 08:50:56;;;;;;;17.40;13.77;;;;;;;;;;5029993;28;20125;-66
2022/03/25 08:53:24;;;;;;;15.18;12.32;;;;;;;;;;5031092;28;20049;-66
2022/03/25 08:56:00;;;;;;;16.02;14.43;;;;;;;;;;5031570;28;20050;-66
2022/03/25 08:58:28;;;;;;;17.75;15.02;;;;;;;;;;5032043;28;20424;-66
2022/03/25 09:00:58;;;;;;;21.88;15.10;;;;;;;;;;5032866;28;20041;-66
2022/03/25 09:03:26;;;;;;;18.67;15.68;;;;;;;;;;5032869;28;20107;-66
2022/03/25 09:05:56;;;;;;;16.85;14.93;;;;;;;;;;5034371;28;20374;-66
2022/03/25 09:08:24;;;;;;;16.67;15.05;;;;;;;;;;5050008;28;20068;-68
2022/03/25 09:10:53;;;;;;;18.75;13.30;;;;;;;;;;5049206;28;20057;-66
2022/03/25 09:13:21;;;;;;;17.13;15.05;;;;;;;;;;5036801;28;20049;-66
2022/03/25 09:15:51;;;;;;;18.77;15.45;;;;;;;;;;5051992;28;20416;-66
2022/03/25 09:18:20;;;;;;;19.55;16.50;;;;;;;;;;5051816;28;20051;-68
2022/03/25 09:20:48;;;;;;;18.90;15.43;;;;;;;;;;5034947;28;20168;-66
2022/03/25 09:23:17;;;;;;;16.85;15.10;;;;;;;;;;5034159;28;20088;-66
2022/03/25 09:25:46;;;;;;;17.38;15.55;;;;;;;;;;5032981;28;20057;-67
2022/03/25 09:28:15;;;;;;;21.00;17.40;;;;;;;;;;5032731;28;20049;-68
2022/03/25 09:30:44;;;;;;;18.63;15.43;;;;;;;;;;5036513;28;20411;-68
2022/03/25 09:33:12;;;;;;;17.90;16.05;;;;;;;;;;5032838;28;20058;-66
2022/03/25 09:35:42;;;;;;;24.90;15.73;;;;;;;;;;5032242;28;20079;-66
2022/03/25 09:38:11;;;;;;;17.27;15.23;;;;;;;;;;5032385;28;20068;-65
2022/03/25 09:40:41;;;;;;;23.17;17.40;;;;;;;;;;5032688;28;20054;-66
2022/03/25 09:43:11;;;;;;;17.05;15.10;;;;;;;;;;5036419;28;20129;-65
2022/03/25 09:45:40;;;;;;;22.85;15.50;;;;;;;;;;5032428;28;20057;-67
2022/03/25 09:48:09;;;;;;;18.35;16.05;;;;;;;;;;5032887;28;20204;-65
2022/03/25 09:50:40;;;;;;;26.30;16.58;;;;;;;;;;5034114;28;20046;-66
2022/03/25 09:53:30;;;;;;;20.17;15.55;;;;;;;;;;5045236;28;20080;-65
2022/03/25 09:55:58;;;;;;;18.95;16.35;;;;;;;;;;5052251;28;20061;-65
2022/03/25 09:58:28;;;;;;;19.55;16.63;;;;;;;;;;5050407;28;20059;-65
2022/03/25 10:00:57;;;;;;;22.00;15.32;;;;;;;;;;5047917;28;20053;-65
2022/03/25 10:03:57;;;;;;;23.92;16.92;;;;;;;;;;5051787;28;20064;-65
2022/03/25 10:06:28;;;;;;;33.67;16.85;;;;;;;;;;5053491;28;20488;-65
2022/03/25 10:08:59;;;;;;;30.73;18.15;;;;;;;;;;5033467;28;20060;-65
2022/03/25 10:11:31;;;;;;;24.50;17.10;;;;;;;;;;5037742;28;20065;-65
2022/03/25 10:14:14;;;;;;;20.13;15.52;;;;;;;;;;5035325;28;20064;-66
2022/03/25 10:16:45;;;;;;;19.63;16.02;;;;;;;;;;5036249;28;20063;-65
2022/03/25 10:19:19;;;;;;;16.33;14.63;;;;;;;;;;5043438;28;20056;-65
2022/03/25 10:21:57;;;;;;;18.83;16.27;;;;;;;;;;5043238;28;20045;-65
2022/03/25 10:24:37;;;;;;;17.73;15.82;;;;;;;;;;5035696;28;20064;-65
2022/03/25 10:27:15;;;;;;;20.17;14.32;;;;;;;;;;5036172;28;20049;-65
2022/03/25 10:29:45;;;;;;;21.20;15.27;;;;;;;;;;5035614;28;20390;-66
2022/03/25 10:32:16;;;;;;;22.38;15.40;;;;;;;;;;5036217;28;20136;-66
2022/03/25 10:34:45;;;;;;;21.58;15.65;;;;;;;;;;5035259;28;20049;-66
2022/03/25 10:37:14;;;;;;;22.27;14.73;;;;;;;;;;5034483;28;20536;-65
2022/03/25 10:39:51;;;;;;;17.30;14.85;;;;;;;;;;5034348;28;20521;-65
2022/03/25 10:42:20;;;;;;;16.13;13.80;;;;;;;;;;5037245;28;20053;-66
2022/03/25 10:44:48;;;;;;;16.10;14.55;;;;;;;;;;5036097;28;20049;-66
2022/03/25 10:47:17;;;;;;;15.05;13.50;;;;;;;;;;5050380;28;20550;-70
2022/03/25 10:49:49;;;;;;;15.85;14.25;;;;;;;;;;5044142;28;20115;-71
2022/03/25 10:52:21;;;;;;;;;;;;;;;;;;5035916;28;20587;-68
2022/03/25 10:55:19;;;;;;;15.57;13.98;;;;;;;;;;5035541;28;20426;-65
2022/03/25 10:57:58;;;;;;;17.27;15.00;;;;;;;;;;5035138;28;20057;-66
2022/03/25 11:00:26;;;;;;;17.95;14.65;;;;;;;;;;5034960;28;20096;-66
2022/03/25 11:02:54;;;;;;;22.92;16.17;;;;;;;;;;5035480;28;20420;-66
2022/03/25 11:05:22;;;;;;;15.75;12.95;;;;;;;;;;5034018;28;20124;-66
2022/03/25 11:07:52;;;;;;;17.08;15.02;;;;;;;;;;5033825;28;20570;-67
2022/03/25 11:10:21;;;;;;;23.52;14.68;;;;;;;;;;5034262;28;20046;-67
2022/03/25 11:12:51;;;;;;;21.75;16.05;;;;;;;;;;5036616;28;20056;-66
2022/03/25 11:15:20;;;;;;;18.63;13.75;;;;;;;;;;5034828;28;20048;-66
2022/03/25 11:17:49;;;;;;;19.83;15.45;;;;;;;;;;5034846;28;20081;-66
2022/03/25 11:20:17;;;;;;;16.25;14.63;;;;;;;;;;5040816;28;20124;-66
2022/03/25 11:23:16;;;;;;;22.42;16.98;;;;;;;;;;5034344;28;20443;-66
2022/03/25 11:25:54;;;;;;;21.23;13.52;;;;;;;;;;5046933;28;20568;-66
2022/03/25 11:28:32;;;;;;;16.45;14.80;;;;;;;;;;5055959;28;20056;-66
2022/03/25 11:31:02;;;;;;;26.55;16.05;;;;;;;;;;5053898;28;20523;-66
2022/03/25 11:33:32;;;;;;;16.15;14.50;;;;;;;;;;5054067;28;20064;-66
2022/03/25 11:36:15;;;;;;;17.90;15.45;;;;;;;;;;5053655;28;20472;-67
2022/03/25 11:38:44;;;;;;;18.42;16.60;;;;;;;;;;5053073;28;20057;-66
2022/03/25 11:41:24;;;;;;;17.30;15.38;;;;;;;;;;5052936;28;20048;-66
2022/03/25 11:44:23;;;;;;;16.63;14.90;;;;;;;;;;5035941;28;20064;-66
2022/03/25 11:46:58;;;;;;;17.08;14.27;;;;;;;;;;5037943;28;20093;-67
2022/03/25 11:49:32;;;;;;;19.35;13.52;;;;;;;;;;5033550;28;20412;-67
2022/03/25 11:52:25;;;;;;;17.30;14.60;;;;;;;;;;5039765;28;20408;-66
2022/03/25 11:54:55;;;;;;;18.83;15.13;;;;;;;;;;5040415;28;20058;-66
2022/03/25 11:57:30;;;;;;;19.85;15.20;;;;;;;;;;5034782;28;20049;-67
2022/03/25 12:00:02;;;;;;;16.70;15.00;;;;;;;;;;5039726;28;20053;-69
2022/03/25 12:02:36;;;;;;;17.15;15.00;;;;;;;;;;5037087;28;20053;-68
2022/03/25 12:05:26;;;;;;;20.42;17.20;;;;;;;;;;5035443;28;20092;-67
2022/03/25 12:08:26;;;;;;;19.38;16.48;;;;;;;;;;5034164;28;20080;-68
2022/03/25 12:11:01;;;;;;;22.25;14.30;;;;;;;;;;5047916;28;20049;-67
2022/03/25 12:13:50;;;;;;;19.02;15.07;;;;;;;;;;5052327;28;20045;-67
2022/03/25 12:16:47;;;;;;;17.45;15.18;;;;;;;;;;5050699;28;20132;-67
2022/03/25 12:19:41;;;;;;;17.52;15.73;;;;;;;;;;5050438;28;20077;-67
2022/03/25 12:22:30;;;;;;;18.00;16.10;;;;;;;;;;5046554;28;20124;-67
2022/03/25 12:25:21;;;;;;;15.95;14.25;;;;;;;;;;5047486;28;20484;-67
2022/03/25 12:27:51;;;;;;;19.55;15.05;;;;;;;;;;5049689;28;20048;-67
2022/03/25 12:30:40;;;;;;;18.73;16.90;;;;;;;;;;5042521;28;20071;-67
2022/03/25 12:33:30;;;;;;;15.90;14.20;;;;;;;;;;5032838;28;20049;-68
2022/03/25 12:36:21;;;;;;;17.27;15.45;;;;;;;;;;5033845;28;20057;-67
2022/03/25 12:39:16;;;;;;;19.55;15.85;;;;;;;;;;5044378;28;20396;-67
2022/03/25 12:41:50;;;;;;;16.83;14.65;;;;;;;;;;5043917;28;20037;-70
2022/03/25 12:44:28;;;;;;;21.27;15.05;;;;;;;;;;5043615;28;20558;-67
2022/03/25 12:46:58;;;;;;;19.98;13.55;;;;;;;;;;5041868;28;20041;-67
2022/03/25 12:49:28;;;;;;;15.25;13.63;;;;;;;;;;5035925;28;20053;-67
2022/03/25 12:52:06;;;;;;;15.15;13.55;;;;;;;;;;5031796;28;20049;-67
2022/03/25 12:54:36;;;;;;;15.13;13.35;;;;;;;;;;5031566;28;20045;-67
2022/03/25 12:57:06;;;;;;;16.13;12.23;;;;;;;;;;5035542;28;20038;-67
2022/03/25 12:59:55;;;;;;;15.43;12.85;;;;;;;;;;5037960;28;20057;-66
2022/03/25 13:02:37;;;;;;;13.65;12.25;;;;;;;;;;5033623;28;20053;-67
2022/03/25 13:05:06;;;;;;;16.23;13.80;;;;;;;;;;5029537;28;20084;-65
2022/03/25 13:07:35;;;;;;;16.65;14.07;;;;;;;;;;5033772;28;20050;-66
2022/03/25 13:10:05;;;;;;;15.23;13.38;;;;;;;;;;5044488;28;20053;-66
2022/03/25 13:12:34;;;;;;;18.92;14.00;;;;;;;;;;5032197;28;20062;-67
2022/03/25 13:15:06;;;;;;;13.95;12.25;;;;;;;;;;5034499;28;20049;-67
2022/03/25 13:17:38;;;;;;;14.57;12.68;;;;;;;;;;5032378;28;20495;-66
2022/03/25 13:20:16;;;;;;;15.38;13.57;;;;;;;;;;5032797;28;20049;-68
2022/03/25 13:23:09;;;;;;;14.75;13.35;;;;;;;;;;5037281;28;20037;-68
2022/03/25 13:25:40;;;;;;;16.10;13.57;;;;;;;;;;5031182;28;20496;-65
2022/03/25 13:28:16;;;;;;;16.25;14.65;;;;;;;;;;5034716;28;20065;-66
2022/03/25 13:30:46;;;;;;;14.52;13.05;;;;;;;;;;5037340;28;20075;-67
2022/03/25 13:33:22;;;;;;;17.23;12.25;;;;;;;;;;5031992;28;20087;-67
2022/03/25 13:35:50;;;;;;;15.00;13.48;;;;;;;;;;5033299;28;20056;-66
2022/03/25 13:38:47;;;;;;;15.13;13.55;;;;;;;;;;5048636;28;20045;-66
2022/03/25 13:41:18;;;;;;;13.75;12.32;;;;;;;;;;5045661;28;20459;-66
2022/03/25 13:43:56;;;;;;;14.65;13.15;;;;;;;;;;5032708;28;20108;-66
2022/03/25 13:46:31;;;;;;;13.75;12.27;;;;;;;;;;5034869;28;20068;-66
2022/03/25 13:49:03;;;;;;;23.48;14.80;;;;;;;;;;5041918;28;20550;-66
2022/03/25 13:51:33;;;;;;;14.32;12.70;;;;;;;;;;5049729;28;20060;-66
2022/03/25 13:54:07;;;;;;;15.45;13.88;;;;;;;;;;5055666;28;20087;-66
2022/03/25 13:56:50;;;;;;;16.52;13.60;;;;;;;;;;5056058;28;20411;-66
2022/03/25 13:59:34;;;;;;;20.42;13.52;;;;;;;;;;5054341;28;20095;-65
2022/03/25 14:02:02;;;;;;;;;;;;;;;;;;5036800;28;20053;-65
2022/03/25 14:04:31;;;;;;;16.52;14.52;;;;;;;;;;5070651;28;19928;-65
2022/03/25 14:07:02;;;;;;;16.20;13.15;;;;;;;;;;5035658;28;20037;-66
2022/03/25 14:09:40;;;;;;;17.35;14.57;;;;;;;;;;5036349;28;20080;-67
2022/03/25 14:12:20;;;;;;;17.70;13.50;;;;;;;;;;5038983;28;20034;-66
2022/03/25 14:14:51;;;;;;;17.58;15.73;;;;;;;;;;5035609;28;20448;-65
2022/03/25 14:17:18;;;;;;;16.63;14.90;;;;;;;;;;5035941;28;20057;-65
2022/03/25 14:19:58;;;;;;;16.73;14.50;;;;;;;;;;5040476;28;20548;-65
2022/03/25 14:22:28;;;;;;;15.63;14.02;;;;;;;;;;5036237;28;20069;-65
2022/03/25 14:24:56;;;;;;;16.27;14.57;;;;;;;;;;5055433;28;20060;-65
2022/03/25 14:27:24;;;;;;;24.08;14.75;;;;;;;;;;5055490;28;20149;-65
2022/03/25 14:29:53;;;;;;;19.80;16.13;;;;;;;;;;5054444;28;20059;-65
2022/03/25 14:32:21;;;;;;;17.45;14.52;;;;;;;;;;5041175;28;20565;-65
2022/03/25 14:34:52;;;;;;;14.90;13.45;;;;;;;;;;5036004;28;20132;-65
2022/03/25 14:37:23;;;;;;;20.50;16.40;;;;;;;;;;5035941;28;20424;-65
2022/03/25 14:39:52;;;;;;;15.25;13.65;;;;;;;;;;5035633;28;20527;-65
2022/03/25 14:42:20;;;;;;;15.68;14.18;;;;;;;;;;5037550;28;20049;-66
2022/03/25 14:44:50;;;;;;;18.85;15.13;;;;;;;;;;5035982;28;20080;-66
2022/03/25 14:47:19;;;;;;;17.50;15.10;;;;;;;;;;5035896;28;20052;-66
2022/03/25 14:49:48;;;;;;;18.05;16.25;;;;;;;;;;5039112;28;20052;-66